createdAt,value
2023-04-04T00:00:46.543Z,99.90
2023-04-04T00:03:14.771Z,99.90
2023-04-04T00:05:41.810Z,99.90
2023-04-04T00:08:08.641Z,99.90
2023-04-04T00:10:35.455Z,99.90
2023-04-04T00:13:05.604Z,99.90
2023-04-04T00:15:34.708Z,99.90
2023-04-04T00:18:02.804Z,99.90
2023-04-04T00:20:32.776Z,99.90
2023-04-04T00:22:59.534Z,99.90
2023-04-04T00:25:29.720Z,99.90
2023-04-04T00:28:00.723Z,99.90
2023-04-04T00:30:28.402Z,99.90
2023-04-04T00:32:56.382Z,99.90
2023-04-04T00:35:23.409Z,99.90
2023-04-04T00:37:50.183Z,99.90
2023-04-04T00:40:20.273Z,99.90
2023-04-04T00:42:47.056Z,99.90
2023-04-04T00:45:13.872Z,99.90
2023-04-04T00:47:43.569Z,99.90
2023-04-04T00:50:10.622Z,99.90
2023-04-04T00:52:37.670Z,99.90
2023-04-04T00:55:05.104Z,99.90
2023-04-04T00:57:35.394Z,99.90
2023-04-04T01:00:05.336Z,99.90
2023-04-04T01:02:32.205Z,99.90
2023-04-04T01:04:59.910Z,99.90
2023-04-04T01:07:28.542Z,99.90
2023-04-04T01:09:57.683Z,99.90
2023-04-04T01:12:24.545Z,99.90
2023-04-04T01:14:51.976Z,99.90
2023-04-04T01:17:18.994Z,99.90
2023-04-04T01:19:54.022Z,99.90
2023-04-04T01:22:23.300Z,99.90
2023-04-04T01:24:51.891Z,99.90
2023-04-04T01:27:18.988Z,99.90
2023-04-04T01:29:53.961Z,99.90
2023-04-04T01:32:36.354Z,99.90
2023-04-04T01:35:22.829Z,99.90
2023-04-04T01:38:19.093Z,99.90
2023-04-04T01:40:50.435Z,99.90
2023-04-04T01:43:18.943Z,99.90
2023-04-04T01:45:46.264Z,99.90
2023-04-04T01:48:16.686Z,99.90
2023-04-04T01:50:47.079Z,99.90
2023-04-04T01:53:15.022Z,99.90
2023-04-04T01:55:42.438Z,99.90
2023-04-04T01:58:09.504Z,99.90
2023-04-04T02:00:36.380Z,99.90
2023-04-04T02:03:04.059Z,99.90
2023-04-04T02:05:33.004Z,99.90
2023-04-04T02:07:59.822Z,99.90
2023-04-04T02:10:40.294Z,99.90
2023-04-04T02:13:07.445Z,99.90
2023-04-04T02:15:34.848Z,99.90
2023-04-04T02:18:04.584Z,99.90
2023-04-04T02:20:31.486Z,99.90
2023-04-04T02:23:00.508Z,99.90
2023-04-04T02:25:27.916Z,99.90
2023-04-04T02:27:54.928Z,99.90
2023-04-04T02:30:21.708Z,99.90
2023-04-04T02:32:50.859Z,99.90
2023-04-04T02:35:20.132Z,99.90
2023-04-04T02:37:52.845Z,99.90
2023-04-04T02:40:24.105Z,99.90
2023-04-04T02:42:50.976Z,99.90
2023-04-04T02:45:18.560Z,99.90
2023-04-04T02:47:54.494Z,99.90
2023-04-04T02:50:27.187Z,99.90
2023-04-04T02:53:02.207Z,99.90
2023-04-04T02:55:32.417Z,99.90
2023-04-04T02:58:01.754Z,99.90
2023-04-04T03:00:28.804Z,99.90
2023-04-04T03:02:56.455Z,99.90
2023-04-04T03:05:29.901Z,99.90
2023-04-04T03:07:57.402Z,99.90
2023-04-04T03:10:24.843Z,99.90
2023-04-04T03:12:51.819Z,99.90
2023-04-04T03:15:19.617Z,99.90
2023-04-04T03:17:46.889Z,99.90
2023-04-04T03:20:15.056Z,99.90
2023-04-04T03:22:42.366Z,99.90
2023-04-04T03:25:09.859Z,99.90
2023-04-04T03:27:36.888Z,99.90
2023-04-04T03:30:04.069Z,99.90
2023-04-04T03:32:33.026Z,99.90
2023-04-04T03:34:59.903Z,99.90
2023-04-04T03:37:26.731Z,99.90
2023-04-04T03:39:53.529Z,99.90
2023-04-04T03:42:20.889Z,99.90
2023-04-04T03:44:47.901Z,99.90
2023-04-04T03:47:26.730Z,99.90
2023-04-04T03:49:53.805Z,99.90
2023-04-04T03:52:20.754Z,99.90
2023-04-04T03:54:47.632Z,99.90
2023-04-04T03:57:14.422Z,99.90
2023-04-04T03:59:43.185Z,99.90
2023-04-04T04:02:10.105Z,99.90
2023-04-04T04:04:37.011Z,99.90
2023-04-04T04:07:04.365Z,99.90
2023-04-04T04:09:31.373Z,99.90
2023-04-04T04:11:58.383Z,99.90
2023-04-04T04:14:25.271Z,99.90
2023-04-04T04:16:52.232Z,99.90
2023-04-04T04:19:22.318Z,99.90
2023-04-04T04:21:49.356Z,99.90
2023-04-04T04:24:17.205Z,99.90
2023-04-04T04:26:44.189Z,99.90
2023-04-04T04:29:14.149Z,99.90
2023-04-04T04:31:41.777Z,99.90
2023-04-04T04:34:08.828Z,99.90
2023-04-04T04:36:37.496Z,99.90
2023-04-04T04:39:24.987Z,99.90
2023-04-04T04:42:10.422Z,99.90
2023-04-04T04:44:44.888Z,99.90
2023-04-04T04:47:11.986Z,99.90
2023-04-04T04:49:38.829Z,99.90
2023-04-04T04:52:08.611Z,99.90
2023-04-04T04:54:36.621Z,99.90
2023-04-04T04:57:03.599Z,99.90
2023-04-04T04:59:30.989Z,99.90
2023-04-04T05:01:59.968Z,99.90
2023-04-04T05:04:27.291Z,99.90
2023-04-04T05:07:01.636Z,99.90
2023-04-04T05:09:28.614Z,99.90
2023-04-04T05:11:55.971Z,99.90
2023-04-04T05:14:26.804Z,99.90
2023-04-04T05:16:57.052Z,99.90
2023-04-04T05:19:29.481Z,99.90
2023-04-04T05:21:58.313Z,99.90
2023-04-04T05:24:36.188Z,99.90
2023-04-04T05:27:03.842Z,99.90
2023-04-04T05:29:37.564Z,99.90
2023-04-04T05:32:05.402Z,99.90
2023-04-04T05:34:34.907Z,99.90
2023-04-04T05:37:05.590Z,99.90
2023-04-04T05:39:34.005Z,99.90
2023-04-04T05:42:05.431Z,99.90
2023-04-04T05:44:37.360Z,99.90
2023-04-04T05:47:06.311Z,99.90
2023-04-04T05:49:33.434Z,99.90
2023-04-04T05:52:01.837Z,99.90
2023-04-04T05:54:30.688Z,99.90
2023-04-04T05:57:00.271Z,99.90
2023-04-04T05:59:38.914Z,99.90
2023-04-04T06:02:08.364Z,99.90
2023-04-04T06:04:41.059Z,99.90
2023-04-04T06:07:10.025Z,99.90
2023-04-04T06:09:36.913Z,99.90
2023-04-04T06:12:06.661Z,99.90
2023-04-04T06:14:37.919Z,99.90
2023-04-04T06:17:06.687Z,99.90
2023-04-04T06:19:34.873Z,99.90
2023-04-04T06:22:01.697Z,99.90
2023-04-04T06:24:29.880Z,99.90
2023-04-04T06:26:56.890Z,99.90
2023-04-04T06:29:26.313Z,99.90
2023-04-04T06:31:55.439Z,99.90
2023-04-04T06:34:33.658Z,99.90
2023-04-04T06:37:01.370Z,99.90
2023-04-04T06:39:34.414Z,99.90
2023-04-04T06:42:04.562Z,99.90
2023-04-04T06:44:33.877Z,99.90
2023-04-04T06:47:00.741Z,99.90
2023-04-04T06:49:27.772Z,99.90
2023-04-04T06:51:55.214Z,99.90
2023-04-04T06:54:22.145Z,99.90
2023-04-04T06:56:49.261Z,99.90
2023-04-04T06:59:16.727Z,99.90
2023-04-04T07:01:43.574Z,99.90
2023-04-04T07:04:10.629Z,99.90
2023-04-04T07:06:37.418Z,99.90
2023-04-04T07:09:05.903Z,99.90
2023-04-04T07:11:34.132Z,99.90
2023-04-04T07:14:00.974Z,99.90
2023-04-04T07:16:28.343Z,99.90
2023-04-04T07:18:55.372Z,99.90
2023-04-04T07:21:22.124Z,99.90
2023-04-04T07:23:50.807Z,99.90
2023-04-04T07:26:17.570Z,99.90
2023-04-04T07:28:44.365Z,99.90
2023-04-04T07:31:11.403Z,99.90
2023-04-04T07:33:38.233Z,99.90
2023-04-04T07:36:05.256Z,99.90
2023-04-04T07:38:32.159Z,99.90
2023-04-04T07:40:58.950Z,99.90
2023-04-04T07:43:25.892Z,99.90
2023-04-04T07:45:54.670Z,99.90
2023-04-04T07:48:22.975Z,99.90
2023-04-04T07:50:49.989Z,97.20
2023-04-04T07:53:16.823Z,95.70
2023-04-04T07:55:43.618Z,94.20
2023-04-04T07:58:10.767Z,91.80
2023-04-04T08:00:37.696Z,88.20
2023-04-04T08:03:04.850Z,85.30
2023-04-04T08:05:31.726Z,83.20
2023-04-04T08:07:58.602Z,82.40
2023-04-04T08:10:25.494Z,79.40
2023-04-04T08:12:53.261Z,76.40
2023-04-04T08:15:20.152Z,69.30
2023-04-04T08:17:47.001Z,69.40
2023-04-04T08:20:13.840Z,69.60
2023-04-04T08:22:41.212Z,68.50
2023-04-04T08:25:08.682Z,67.50
2023-04-04T08:27:35.610Z,65.70
2023-04-04T08:30:04.103Z,68.40
2023-04-04T08:32:32.120Z,66.80
2023-04-04T08:34:59.332Z,65.10
2023-04-04T08:37:26.161Z,64.00
2023-04-04T08:39:53.099Z,63.50
2023-04-04T08:42:20.820Z,61.70
2023-04-04T08:44:48.097Z,61.00
2023-04-04T08:47:15.004Z,61.10
2023-04-04T08:49:43.529Z,61.50
2023-04-04T08:52:12.342Z,63.00
2023-04-04T08:54:39.987Z,60.00
2023-04-04T08:57:08.427Z,62.80
2023-04-04T08:59:35.848Z,60.60
2023-04-04T09:02:08.839Z,60.60
2023-04-04T09:04:35.980Z,59.00
2023-04-04T09:07:03.625Z,58.60
2023-04-04T09:09:34.161Z,59.30
2023-04-04T09:12:01.499Z,59.40
2023-04-04T09:14:29.844Z,60.10
2023-04-04T09:16:57.058Z,59.80
2023-04-04T09:19:26.097Z,59.50
2023-04-04T09:21:53.247Z,59.20
2023-04-04T09:24:20.335Z,58.50
2023-04-04T09:26:48.144Z,58.20
2023-04-04T09:29:17.627Z,58.80
2023-04-04T09:31:46.788Z,58.60
2023-04-04T09:34:14.817Z,58.60
2023-04-04T09:36:41.615Z,56.70
2023-04-04T09:39:08.832Z,57.10
2023-04-04T09:41:38.120Z,57.60
2023-04-04T09:44:05.651Z,57.10
2023-04-04T09:46:32.583Z,57.60
2023-04-04T09:48:59.557Z,57.80
2023-04-04T09:51:27.562Z,56.70
2023-04-04T09:53:54.361Z,56.70
2023-04-04T09:56:21.173Z,57.00
2023-04-04T09:59:02.626Z,58.00
2023-04-04T10:01:30.466Z,56.70
2023-04-04T10:03:57.429Z,58.00
2023-04-04T10:06:24.512Z,57.80
2023-04-04T10:08:52.729Z,57.60
2023-04-04T10:11:33.976Z,59.10
2023-04-04T10:14:02.721Z,58.70
2023-04-04T10:16:37.170Z,57.90
2023-04-04T10:19:09.840Z,58.30
2023-04-04T10:21:36.814Z,56.80
2023-04-04T10:24:09.296Z,57.00
2023-04-04T10:26:37.096Z,57.00
2023-04-04T10:29:06.020Z,57.00
2023-04-04T10:31:34.151Z,56.80
2023-04-04T10:34:30.642Z,57.40
2023-04-04T10:37:10.720Z,56.90
2023-04-04T10:40:04.389Z,56.20
2023-04-04T10:42:34.479Z,56.70
2023-04-04T10:45:17.010Z,56.70
2023-04-04T10:47:46.606Z,57.50
2023-04-04T10:50:13.685Z,56.70
2023-04-04T10:52:42.241Z,56.10
2023-04-04T10:55:11.422Z,55.70
2023-04-04T10:57:50.945Z,55.80
2023-04-04T11:00:19.408Z,55.80
2023-04-04T11:02:59.632Z,55.80
2023-04-04T11:05:40.947Z,57.40
2023-04-04T11:08:09.740Z,55.80
2023-04-04T11:10:37.753Z,56.50
2023-04-04T11:13:30.979Z,55.70
2023-04-04T11:15:59.993Z,56.30
2023-04-04T11:18:38.953Z,54.90
2023-04-04T11:21:24.890Z,54.10
2023-04-04T11:23:54.855Z,55.90
2023-04-04T11:26:27.980Z,55.90
2023-04-04T11:28:58.449Z,54.50
2023-04-04T11:31:27.554Z,54.80
2023-04-04T11:34:07.914Z,54.30
2023-04-04T11:36:37.986Z,53.40
2023-04-04T11:39:19.756Z,54.60
2023-04-04T11:41:53.932Z,54.10
2023-04-04T11:44:25.555Z,54.10
2023-04-04T11:47:09.700Z,53.20
2023-04-04T11:49:41.206Z,53.80
2023-04-04T11:52:09.374Z,53.50
2023-04-04T11:54:37.700Z,54.70
2023-04-04T11:57:06.845Z,52.60
2023-04-04T11:59:34.815Z,53.90
2023-04-04T12:02:03.125Z,54.40
2023-04-04T12:04:29.982Z,53.70
2023-04-04T12:06:56.890Z,53.10
2023-04-04T12:09:25.783Z,54.30
2023-04-04T12:11:52.825Z,53.50
2023-04-04T12:14:20.934Z,52.90
2023-04-04T12:16:48.413Z,52.30
2023-04-04T12:19:15.487Z,52.40
2023-04-04T12:21:42.354Z,52.90
2023-04-04T12:24:09.297Z,53.50
2023-04-04T12:26:38.009Z,53.40
2023-04-04T12:29:05.823Z,52.80
2023-04-04T12:31:32.689Z,53.60
2023-04-04T12:33:59.879Z,52.80
2023-04-04T12:36:29.810Z,52.80
2023-04-04T12:38:58.783Z,52.40
2023-04-04T12:41:25.836Z,52.20
2023-04-04T12:43:52.712Z,51.70
2023-04-04T12:46:26.117Z,50.70
2023-04-04T12:48:52.884Z,52.00
2023-04-04T12:51:19.663Z,52.40
2023-04-04T12:53:56.944Z,51.20
2023-04-04T12:56:27.426Z,51.20
2023-04-04T12:58:54.629Z,52.80
2023-04-04T13:01:21.503Z,52.60
2023-04-04T13:03:48.864Z,51.50
2023-04-04T13:06:19.810Z,51.80
2023-04-04T13:08:53.275Z,51.50
2023-04-04T13:11:20.155Z,51.40
2023-04-04T13:16:35.557Z,51.90
2023-04-04T13:19:02.744Z,51.10
2023-04-04T13:21:29.784Z,51.30
2023-04-04T13:23:56.573Z,51.30
2023-04-04T13:26:23.359Z,52.20
2023-04-04T13:28:50.334Z,51.00
2023-04-04T13:31:17.572Z,52.00
2023-04-04T13:33:44.592Z,51.00
2023-04-04T13:36:11.709Z,50.90
2023-04-04T13:38:38.567Z,50.30
2023-04-04T13:41:05.423Z,51.50
2023-04-04T13:43:32.259Z,49.80
2023-04-04T13:45:59.236Z,49.40
2023-04-04T13:48:26.572Z,50.70
2023-04-04T13:50:55.376Z,50.90
2023-04-04T13:53:22.454Z,49.60
2023-04-04T13:58:20.517Z,50.20
2023-04-04T14:00:48.508Z,50.80
2023-04-04T14:03:16.864Z,50.50
2023-04-04T14:05:43.912Z,51.70
2023-04-04T14:08:10.731Z,50.50
2023-04-04T14:10:37.632Z,51.10
2023-04-04T14:13:04.519Z,50.80
2023-04-04T14:15:31.286Z,50.00
2023-04-04T14:17:58.090Z,48.60
2023-04-04T14:20:24.889Z,50.00
2023-04-04T14:22:51.852Z,49.00
2023-04-04T14:25:18.681Z,50.20
2023-04-04T14:27:45.586Z,49.30
2023-04-04T14:30:12.904Z,49.60
2023-04-04T14:32:39.767Z,48.90
2023-04-04T14:35:06.823Z,49.60
2023-04-04T14:37:33.615Z,48.80
2023-04-04T14:40:00.613Z,50.10
2023-04-04T14:42:27.572Z,50.00
2023-04-04T14:44:54.362Z,49.60
2023-04-04T14:47:22.065Z,48.50
2023-04-04T14:49:48.962Z,49.40
2023-04-04T14:52:15.880Z,48.00
2023-04-04T14:54:42.691Z,47.50
2023-04-04T14:57:09.504Z,46.30
2023-04-04T14:59:36.711Z,47.00
2023-04-04T15:02:03.523Z,45.90
2023-04-04T15:04:30.418Z,44.50
2023-04-04T15:07:00.822Z,44.80
2023-04-04T15:09:28.165Z,44.70
2023-04-04T15:11:56.311Z,44.80
2023-04-04T15:14:23.707Z,43.00
2023-04-04T15:16:51.017Z,43.10
2023-04-04T15:19:17.872Z,42.40
2023-04-04T15:21:45.396Z,43.10
2023-04-04T15:24:12.170Z,41.60
2023-04-04T15:26:38.991Z,41.40
2023-04-04T15:29:06.118Z,41.10
2023-04-04T15:31:32.960Z,40.30
2023-04-04T15:34:00.645Z,41.30
2023-04-04T15:36:28.917Z,39.80
2023-04-04T15:38:56.396Z,40.10
2023-04-04T15:41:23.235Z,40.40
2023-04-04T15:43:50.190Z,40.20
2023-04-04T15:46:17.102Z,39.30
2023-04-04T15:48:43.894Z,38.80
2023-04-04T15:51:10.869Z,39.70
2023-04-04T15:53:38.008Z,39.80
2023-04-04T15:56:04.921Z,36.60
2023-04-04T15:58:31.815Z,37.80
2023-04-04T16:00:58.725Z,38.70
2023-04-04T16:03:25.899Z,38.80
2023-04-04T16:05:52.863Z,38.80
2023-04-04T16:08:19.694Z,39.50
2023-04-04T16:10:46.522Z,40.00
2023-04-04T16:13:13.406Z,39.90
2023-04-04T16:15:40.349Z,40.00
2023-04-04T16:18:07.579Z,37.60
2023-04-04T16:20:34.570Z,37.20
2023-04-04T16:23:01.426Z,38.60
2023-04-04T16:25:28.358Z,39.40
2023-04-04T16:27:55.582Z,39.20
2023-04-04T16:30:22.463Z,39.10
2023-04-04T16:32:49.504Z,38.70
2023-04-04T16:35:16.451Z,39.10
2023-04-04T16:37:43.320Z,37.20
2023-04-04T16:40:10.562Z,37.70
2023-04-04T16:42:37.439Z,36.90
2023-04-04T16:45:08.129Z,37.20
2023-04-04T16:47:36.549Z,37.10
2023-04-04T16:50:04.704Z,36.70
2023-04-04T16:52:31.648Z,36.50
2023-04-04T16:54:58.484Z,36.80
2023-04-04T16:57:25.517Z,37.60
2023-04-04T16:59:52.346Z,37.50
2023-04-04T17:02:19.187Z,36.90
2023-04-04T17:04:46.027Z,36.60
2023-04-04T17:07:12.856Z,35.90
2023-04-04T17:09:39.780Z,37.20
2023-04-04T17:12:06.731Z,38.10
2023-04-04T17:14:33.641Z,37.30
2023-04-04T17:17:01.056Z,37.80
2023-04-04T17:19:29.968Z,41.20
2023-04-04T17:21:57.433Z,42.60
2023-04-04T17:24:25.622Z,43.50
2023-04-04T17:26:53.155Z,43.90
2023-04-04T17:29:26.996Z,45.40
2023-04-04T17:31:57.192Z,46.50
2023-04-04T17:34:24.264Z,46.50
2023-04-04T17:36:52.208Z,47.60
2023-04-04T17:39:19.119Z,49.50
2023-04-04T17:41:49.387Z,49.00
2023-04-04T17:44:16.978Z,49.00
2023-04-04T17:46:45.112Z,50.30
2023-04-04T17:49:12.685Z,53.80
2023-04-04T17:51:40.945Z,55.60
2023-04-04T17:54:08.399Z,56.80
2023-04-04T17:56:35.807Z,60.00
2023-04-04T17:59:02.647Z,63.30
2023-04-04T18:01:29.612Z,63.80
2023-04-04T18:03:58.060Z,62.80
2023-04-04T18:06:25.067Z,66.20
2023-04-04T18:08:51.924Z,65.70
2023-04-04T18:11:18.717Z,68.70
2023-04-04T18:13:45.661Z,70.10
2023-04-04T18:16:12.597Z,70.00
2023-04-04T18:18:40.616Z,72.00
2023-04-04T18:21:08.476Z,71.80
2023-04-04T18:23:35.637Z,74.30
2023-04-04T18:26:02.606Z,73.80
2023-04-04T18:28:29.584Z,75.60
2023-04-04T18:30:56.388Z,77.60
2023-04-04T18:33:25.009Z,76.90
2023-04-04T18:35:53.019Z,78.00
2023-04-04T18:38:20.160Z,80.60
2023-04-04T18:40:46.929Z,82.50
2023-04-04T18:43:13.917Z,81.10
2023-04-04T18:45:41.453Z,83.70
2023-04-04T18:48:08.825Z,83.50
2023-04-04T18:50:36.022Z,87.10
2023-04-04T18:53:02.940Z,85.50
2023-04-04T18:55:29.769Z,89.10
2023-04-04T18:57:57.585Z,89.50
2023-04-04T19:00:24.925Z,90.60
2023-04-04T19:02:51.913Z,90.90
2023-04-04T19:05:24.028Z,91.60
2023-04-04T19:07:52.514Z,92.50
2023-04-04T19:10:19.312Z,93.20
2023-04-04T19:12:46.136Z,94.10
2023-04-04T19:15:12.980Z,94.30
2023-04-04T19:17:40.317Z,95.50
2023-04-04T19:20:08.272Z,95.70
2023-04-04T19:22:35.188Z,95.40
2023-04-04T19:25:01.985Z,94.10
2023-04-04T19:27:28.891Z,93.60
2023-04-04T19:29:56.049Z,95.10
2023-04-04T19:32:24.303Z,96.20
2023-04-04T19:34:52.110Z,95.60
2023-04-04T19:37:19.233Z,96.80
2023-04-04T19:39:49.495Z,97.40
2023-04-04T19:42:27.400Z,95.90
2023-04-04T19:44:54.204Z,96.80
2023-04-04T19:47:21.154Z,99.20
2023-04-04T19:49:50.957Z,99.20
2023-04-04T19:52:18.299Z,98.30
2023-04-04T19:54:45.572Z,99.00
2023-04-04T19:57:20.365Z,99.90
2023-04-04T19:59:57.519Z,99.90
2023-04-04T20:02:27.537Z,99.90
2023-04-04T20:04:54.773Z,99.90
2023-04-04T20:07:21.613Z,99.90
2023-04-04T20:09:48.380Z,99.90
2023-04-04T20:12:15.579Z,99.90
2023-04-04T20:14:42.438Z,99.90
2023-04-04T20:17:09.755Z,99.90
2023-04-04T20:19:36.689Z,99.90
2023-04-04T20:22:05.124Z,99.90
2023-04-04T20:24:32.100Z,99.90
2023-04-04T20:26:59.627Z,99.90
2023-04-04T20:29:30.607Z,99.90
2023-04-04T20:31:59.014Z,99.90
2023-04-04T20:34:42.124Z,99.90
2023-04-04T20:37:10.250Z,99.90
2023-04-04T20:39:41.457Z,99.90
2023-04-04T20:42:19.139Z,99.90
2023-04-04T20:44:49.142Z,99.90
2023-04-04T20:47:45.233Z,99.90
2023-04-04T20:50:21.135Z,99.90
2023-04-04T20:52:53.372Z,99.90
2023-04-04T20:55:20.715Z,99.90
2023-04-04T20:57:47.544Z,99.90
2023-04-04T21:00:38.169Z,99.90
2023-04-04T21:03:25.272Z,99.90
2023-04-04T21:05:53.069Z,99.90
2023-04-04T21:08:19.941Z,99.90
2023-04-04T21:10:57.218Z,99.90
2023-04-04T21:13:27.491Z,99.90
2023-04-04T21:15:56.118Z,99.90
2023-04-04T21:18:23.223Z,99.90
2023-04-04T21:20:49.987Z,99.90
2023-04-04T21:23:26.002Z,99.90
2023-04-04T21:26:17.517Z,99.90
2023-04-04T21:28:44.464Z,99.90
2023-04-04T21:31:13.690Z,99.90
2023-04-04T21:33:48.751Z,99.90
2023-04-04T21:36:27.309Z,99.90
2023-04-04T21:39:01.406Z,99.90
2023-04-04T21:41:28.904Z,99.90
2023-04-04T21:43:57.042Z,99.90
2023-04-04T21:46:25.056Z,99.90
2023-04-04T21:48:52.317Z,99.90
2023-04-04T21:51:19.172Z,99.90
2023-04-04T21:53:46.068Z,99.90
2023-04-04T21:56:13.733Z,99.90
2023-04-04T21:58:41.205Z,99.90
2023-04-04T22:01:08.182Z,99.90
2023-04-04T22:03:37.176Z,99.90
2023-04-04T22:06:04.222Z,99.90
2023-04-04T22:08:31.356Z,99.90
2023-04-04T22:11:01.849Z,99.90
2023-04-04T22:13:33.383Z,99.90
2023-04-04T22:16:01.279Z,99.90
2023-04-04T22:18:33.102Z,99.90
2023-04-04T22:21:03.522Z,99.90
2023-04-04T22:23:37.079Z,99.90
2023-04-04T22:26:13.826Z,99.90
2023-04-04T22:28:41.962Z,99.90
2023-04-04T22:31:08.924Z,99.90
2023-04-04T22:33:35.741Z,99.90
2023-04-04T22:36:02.701Z,99.90
2023-04-04T22:38:29.643Z,99.90
2023-04-04T22:40:57.013Z,99.90
2023-04-04T22:43:25.602Z,99.90
2023-04-04T22:45:52.832Z,99.90
2023-04-04T22:48:22.989Z,99.90
2023-04-04T22:50:51.218Z,99.90
2023-04-04T22:53:24.702Z,99.90
2023-04-04T22:55:58.473Z,99.90
2023-04-04T22:58:25.753Z,99.90
2023-04-04T23:00:52.612Z,99.90
2023-04-04T23:03:19.903Z,99.90
2023-04-04T23:05:46.683Z,99.90
2023-04-04T23:08:13.584Z,99.90
2023-04-04T23:10:40.678Z,99.90
2023-04-04T23:13:07.756Z,99.90
2023-04-04T23:15:37.752Z,99.90
2023-04-04T23:18:04.925Z,99.90
2023-04-04T23:20:32.305Z,99.90
2023-04-04T23:22:59.407Z,99.90
2023-04-04T23:25:26.491Z,99.90
2023-04-04T23:27:53.983Z,99.90
2023-04-04T23:30:21.065Z,99.90
2023-04-04T23:32:47.953Z,99.90
2023-04-04T23:35:14.868Z,99.90
2023-04-04T23:37:41.678Z,99.90
2023-04-04T23:40:09.004Z,99.90
2023-04-04T23:42:35.887Z,99.90
2023-04-04T23:45:04.653Z,99.90
2023-04-04T23:47:31.570Z,99.90
2023-04-04T23:49:58.400Z,99.90
2023-04-04T23:52:25.418Z,99.90
2023-04-04T23:54:52.191Z,99.90
2023-04-04T23:57:18.994Z,99.90
2023-04-04T23:59:45.776Z,99.90
